Time;durP1;ratioP1;P1;durP2;ratioP2;P2;SDS_P1;SDS_P2;PMS_P1;PMS_P2;Temp;Humidity;BMP_temperature;BMP_pressure;BME280_temperature;BME280_humidity;BME280_pressure;Samples;Min_cycle;Max_cycle;Signal;HPM_P1;HPM_P2
2021/04/10 00:01:57;;;;;;;40.22;25.48;;;7.40;99.90;;;;;;5096198;28;20048;-67
2021/04/10 00:04:23;;;;;;;36.40;25.00;;;7.40;99.90;;;;;;5096132;28;20373;-67
2021/04/10 00:06:48;;;;;;;37.63;25.20;;;7.40;99.90;;;;;;5096030;28;20032;-67
2021/04/10 00:09:14;;;;;;;40.72;24.83;;;7.40;99.90;;;;;;5096038;28;20050;-67
2021/04/10 00:11:40;;;;;;;41.33;24.75;;;7.40;99.90;;;;;;5095986;28;20111;-67
2021/04/10 00:14:07;;;;;;;40.38;24.58;;;7.40;99.90;;;;;;5095927;28;20028;-67
2021/04/10 00:16:34;;;;;;;40.70;23.73;;;7.40;99.90;;;;;;5095788;28;20391;-67
2021/04/10 00:18:59;;;;;;;42.03;24.92;;;7.40;99.90;;;;;;5095560;28;20078;-67
2021/04/10 00:21:25;;;;;;;37.03;23.00;;;7.30;99.90;;;;;;5095817;28;20020;-67
2021/04/10 00:23:50;;;;;;;40.55;25.00;;;7.40;99.90;;;;;;5095199;28;20102;-67
2021/04/10 00:26:16;;;;;;;38.75;23.35;;;7.30;99.90;;;;;;5095166;28;20104;-67
2021/04/10 00:28:42;;;;;;;35.35;23.55;;;7.40;99.90;;;;;;5095621;28;20066;-68
2021/04/10 00:31:08;;;;;;;40.30;22.95;;;7.40;99.90;;;;;;5095617;28;20048;-67
2021/04/10 00:33:36;;;;;;;30.52;21.30;;;7.50;99.90;;;;;;5094123;28;20012;-67
2021/04/10 00:36:02;;;;;;;34.80;23.17;;;7.50;99.90;;;;;;5095241;28;20039;-67
2021/04/10 00:38:29;;;;;;;35.17;24.33;;;7.50;99.90;;;;;;5095428;28;20028;-68
2021/04/10 00:40:55;;;;;;;35.65;25.13;;;7.50;99.90;;;;;;5095160;28;20453;-67
2021/04/10 00:43:20;;;;;;;38.70;24.83;;;7.40;99.90;;;;;;5095127;28;20024;-67
2021/04/10 00:45:46;;;;;;;35.78;24.77;;;7.40;99.90;;;;;;5095041;28;20094;-67
2021/04/10 00:48:11;;;;;;;36.08;25.17;;;7.40;99.90;;;;;;5095216;28;20024;-68
2021/04/10 00:50:37;;;;;;;42.28;25.92;;;7.40;99.90;;;;;;5093751;28;20099;-67
2021/04/10 00:53:02;;;;;;;35.83;26.58;;;7.30;99.90;;;;;;5095142;28;20028;-67
2021/04/10 00:55:29;;;;;;;40.35;27.58;;;7.30;99.90;;;;;;5094836;28;20140;-67
2021/04/10 00:57:55;;;;;;;40.53;27.27;;;7.30;99.90;;;;;;5076231;28;20382;-67
2021/04/10 01:00:21;;;;;;;45.88;29.50;;;7.30;99.90;;;;;;5095001;28;20023;-67
2021/04/10 01:02:47;;;;;;;42.75;28.70;;;7.30;99.90;;;;;;5094962;28;20051;-67
2021/04/10 01:05:13;;;;;;;48.80;30.83;;;7.20;99.90;;;;;;5094894;28;20047;-67
2021/04/10 01:07:38;;;;;;;47.58;31.55;;;7.30;99.90;;;;;;5094624;28;20038;-67
2021/04/10 01:10:05;;;;;;;42.08;30.05;;;7.20;99.90;;;;;;5094268;28;20028;-67
2021/04/10 01:12:49;;;;;;;49.42;31.05;;;7.10;99.90;;;;;;5094504;28;20107;-67
2021/04/10 01:15:40;;;;;;;47.70;31.83;;;7.20;99.90;;;;;;5094789;28;20016;-67
2021/04/10 01:18:12;;;;;;;50.50;32.35;;;7.10;99.90;;;;;;5092861;28;20077;-67
2021/04/10 01:20:52;;;;;;;47.17;32.78;;;7.10;99.90;;;;;;5092902;28;20020;-67
2021/04/10 01:23:51;;;;;;;53.13;33.45;;;7.20;99.90;;;;;;5092863;28;20020;-67
2021/04/10 01:26:54;;;;;;;64.32;36.83;;;7.10;99.90;;;;;;5093865;28;20472;-67
2021/04/10 01:29:22;;;;;;;57.85;36.28;;;7.10;99.90;;;;;;5094128;28;20029;-67
2021/04/10 01:31:53;;;;;;;62.53;35.95;;;7.10;99.90;;;;;;5094532;28;20039;-67
2021/04/10 01:34:43;;;;;;;70.45;38.70;;;7.10;99.90;;;;;;5094504;28;20158;-67
2021/04/10 01:37:15;;;;;;;72.10;38.67;;;7.10;99.90;;;;;;5093878;28;20132;-67
2021/04/10 01:39:42;;;;;;;65.97;39.42;;;7.00;99.90;;;;;;5093877;28;20020;-67
2021/04/10 01:42:11;;;;;;;72.25;39.58;;;7.10;99.90;;;;;;5092589;28;20097;-67
2021/04/10 01:44:39;;;;;;;69.65;39.97;;;7.10;99.90;;;;;;5094372;28;20028;-67
2021/04/10 01:47:07;;;;;;;60.33;39.28;;;7.00;99.90;;;;;;5094324;28;20032;-67
2021/04/10 01:49:34;;;;;;;54.85;37.35;;;7.00;99.90;;;;;;5093724;28;20032;-67
2021/04/10 01:52:02;;;;;;;54.40;37.22;;;6.90;99.90;;;;;;5094272;28;20016;-67
2021/04/10 01:54:27;;;;;;;54.13;35.63;;;6.90;99.90;;;;;;5094298;28;20027;-67
2021/04/10 01:56:54;;;;;;;55.72;38.00;;;6.90;99.90;;;;;;5092582;28;20044;-67
2021/04/10 01:59:21;;;;;;;59.10;36.97;;;6.90;99.90;;;;;;5092374;28;20024;-67
2021/04/10 02:01:49;;;;;;;60.28;38.75;;;6.90;99.90;;;;;;5093602;28;20457;-67
2021/04/10 02:04:15;;;;;;;56.20;37.40;;;6.90;99.90;;;;;;5094185;28;20025;-67
2021/04/10 02:06:44;;;;;;;52.90;36.40;;;6.90;99.90;;;;;;5094111;28;20024;-67
2021/04/10 02:09:11;;;;;;;69.15;39.53;;;6.90;99.90;;;;;;5094083;28;20095;-68
2021/04/10 02:11:38;;;;;;;61.72;37.30;;;6.90;99.90;;;;;;5093797;28;20036;-67
2021/04/10 02:14:05;;;;;;;58.25;36.83;;;7.00;99.90;;;;;;5094053;28;20047;-67
2021/04/10 02:16:31;;;;;;;62.50;37.60;;;7.00;99.90;;;;;;5093966;28;20016;-67
2021/04/10 02:18:59;;;;;;;53.28;33.88;;;6.90;99.90;;;;;;5093751;28;20020;-67
2021/04/10 02:21:26;;;;;;;51.65;34.88;;;6.90;99.90;;;;;;5093717;28;20029;-67
2021/04/10 02:23:53;;;;;;;51.35;35.78;;;6.90;99.90;;;;;;5093940;28;20020;-67
2021/04/10 02:26:20;;;;;;;50.42;34.40;;;6.80;99.90;;;;;;5093940;28;20032;-67
2021/04/10 02:28:46;;;;;;;48.47;34.00;;;6.80;99.90;;;;;;5093916;28;20028;-67
2021/04/10 02:31:21;;;;;;;52.55;33.60;;;6.80;99.90;;;;;;5092048;28;20350;-67
2021/04/10 02:33:49;;;;;;;51.22;34.88;;;6.90;99.90;;;;;;5092742;28;20449;-67
2021/04/10 02:36:20;;;;;;;53.95;33.95;;;6.80;99.90;;;;;;5091974;28;20025;-67
2021/04/10 02:38:47;;;;;;;56.60;34.05;;;6.80;99.90;;;;;;5094086;28;20020;-67
2021/04/10 02:41:19;;;;;;;55.42;34.95;;;6.80;99.90;;;;;;5097773;28;20040;-67
2021/04/10 02:43:59;;;;;;;49.67;33.35;;;6.80;99.90;;;;;;5097711;28;20458;-67
2021/04/10 02:46:28;;;;;;;50.85;33.17;;;6.80;99.90;;;;;;5097401;28;20477;-67
2021/04/10 02:49:02;;;;;;;51.83;33.22;;;6.80;99.90;;;;;;5097609;28;20099;-67
2021/04/10 02:51:34;;;;;;;58.72;33.15;;;6.80;99.90;;;;;;5097549;28;20044;-67
2021/04/10 02:54:02;;;;;;;54.70;34.22;;;6.70;99.90;;;;;;5097501;28;20016;-67
2021/04/10 02:56:30;;;;;;;55.92;34.03;;;6.80;99.90;;;;;;5097124;28;20067;-67
2021/04/10 02:58:59;;;;;;;49.83;32.53;;;6.80;99.90;;;;;;5097419;28;20077;-67
2021/04/10 03:01:25;;;;;;;50.15;32.05;;;6.80;99.90;;;;;;5097414;28;20076;-67
2021/04/10 03:03:51;;;;;;;52.50;33.10;;;6.80;99.90;;;;;;5096770;28;20469;-67
2021/04/10 03:06:18;;;;;;;52.58;33.28;;;6.70;99.90;;;;;;5096727;28;20028;-67
2021/04/10 03:08:47;;;;;;;59.08;34.08;;;6.70;99.90;;;;;;5097227;28;20012;-67
2021/04/10 03:11:14;;;;;;;60.50;34.28;;;6.70;99.90;;;;;;5096877;28;20475;-67
2021/04/10 03:13:40;;;;;;;60.58;34.85;;;6.70;99.90;;;;;;5095931;28;20099;-67
2021/04/10 03:16:05;;;;;;;61.97;34.45;;;6.70;99.90;;;;;;5097110;28;20052;-67
2021/04/10 03:18:32;;;;;;;65.53;34.50;;;6.70;99.90;;;;;;5096427;28;20028;-67
2021/04/10 03:20:58;;;;;;;68.50;35.80;;;6.70;99.90;;;;;;5097011;28;20457;-67
2021/04/10 03:23:24;;;;;;;72.80;36.38;;;6.80;99.90;;;;;;5096944;28;20023;-67
2021/04/10 03:25:49;;;;;;;63.53;33.80;;;6.70;99.90;;;;;;5096881;28;20051;-67
2021/04/10 03:28:16;;;;;;;62.92;34.58;;;6.70;99.90;;;;;;5096858;28;20024;-67
2021/04/10 03:30:42;;;;;;;64.68;34.05;;;6.70;99.90;;;;;;5095630;28;20028;-67
2021/04/10 03:33:08;;;;;;;59.15;34.60;;;6.70;99.90;;;;;;5096520;28;20046;-67
2021/04/10 03:35:34;;;;;;;59.63;32.47;;;6.70;99.90;;;;;;5096722;28;20024;-67
2021/04/10 03:38:00;;;;;;;61.38;31.75;;;6.70;99.90;;;;;;5096316;28;20024;-67
2021/04/10 03:40:27;;;;;;;58.53;32.05;;;6.70;99.90;;;;;;5096348;28;20062;-67
2021/04/10 03:42:52;;;;;;;63.83;31.60;;;6.70;99.90;;;;;;5096596;28;20020;-67
2021/04/10 03:45:20;;;;;;;54.20;28.67;;;6.60;99.90;;;;;;5096309;28;20491;-67
2021/04/10 03:47:46;;;;;;;60.50;29.95;;;6.70;99.90;;;;;;5096500;28;20350;-67
2021/04/10 03:50:13;;;;;;;56.70;31.30;;;6.60;99.90;;;;;;5096109;28;20377;-67
2021/04/10 03:52:40;;;;;;;56.90;28.65;;;6.70;99.90;;;;;;5096435;28;20031;-67
2021/04/10 03:55:07;;;;;;;50.00;29.75;;;6.70;99.90;;;;;;5096353;28;20103;-67
2021/04/10 03:57:33;;;;;;;57.40;29.88;;;6.60;99.90;;;;;;5095597;28;20397;-67
2021/04/10 03:59:59;;;;;;;62.47;30.05;;;6.60;99.90;;;;;;5096239;28;20020;-67
2021/04/10 04:02:25;;;;;;;61.90;28.83;;;6.60;99.90;;;;;;5096206;28;20020;-67
2021/04/10 04:04:51;;;;;;;70.82;29.70;;;6.70;99.90;;;;;;5096161;28;20016;-67
2021/04/10 04:07:17;;;;;;;67.35;28.90;;;6.60;99.90;;;;;;5095814;28;20448;-67
2021/04/10 04:09:42;;;;;;;74.55;31.17;;;6.60;99.90;;;;;;5095487;28;20107;-67
2021/04/10 04:12:09;;;;;;;69.43;27.73;;;6.60;99.90;;;;;;5096032;28;20039;-67
2021/04/10 04:14:35;;;;;;;63.00;28.17;;;6.50;99.90;;;;;;5077478;28;20024;-67
2021/04/10 04:17:01;;;;;;;57.40;26.65;;;6.60;99.90;;;;;;5095842;28;20050;-67
2021/04/10 04:19:27;;;;;;;61.03;27.35;;;6.50;99.90;;;;;;5095874;28;20024;-67
2021/04/10 04:21:53;;;;;;;62.88;27.20;;;6.50;99.90;;;;;;5095527;28;20112;-67
2021/04/10 04:24:18;;;;;;;60.03;27.30;;;6.50;99.90;;;;;;5095812;28;20039;-67
2021/04/10 04:26:44;;;;;;;50.42;26.23;;;6.50;99.90;;;;;;5094549;28;20505;-67
2021/04/10 04:29:09;;;;;;;50.65;26.42;;;6.50;99.90;;;;;;5093884;28;20157;-67
2021/04/10 04:31:35;;;;;;;52.08;26.30;;;6.50;99.90;;;;;;5095613;28;20024;-67
2021/04/10 04:34:00;;;;;;;54.08;26.88;;;6.50;99.90;;;;;;5095569;28;20028;-67
2021/04/10 04:36:26;;;;;;;49.22;25.65;;;6.50;99.90;;;;;;5095485;28;20364;-67
2021/04/10 04:38:51;;;;;;;51.30;24.85;;;6.50;99.90;;;;;;5095446;28;20101;-67
2021/04/10 04:41:17;;;;;;;44.88;24.75;;;6.50;99.90;;;;;;5095464;28;20023;-67
2021/04/10 04:43:43;;;;;;;50.42;26.85;;;6.50;99.90;;;;;;5095095;28;20404;-67
2021/04/10 04:46:08;;;;;;;43.22;25.13;;;6.50;99.90;;;;;;5093514;28;20016;-67
2021/04/10 04:48:34;;;;;;;50.55;26.92;;;6.50;99.90;;;;;;5095332;28;20062;-67
2021/04/10 04:50:59;;;;;;;53.35;27.27;;;6.40;99.90;;;;;;5095265;28;20042;-67
2021/04/10 04:53:25;;;;;;;49.92;26.33;;;6.40;99.90;;;;;;5095231;28;20024;-67
2021/04/10 04:55:50;;;;;;;51.15;26.75;;;6.40;99.90;;;;;;5094901;28;20021;-67
2021/04/10 04:58:16;;;;;;;46.47;25.52;;;6.50;99.90;;;;;;5094384;28;20401;-67
2021/04/10 05:00:42;;;;;;;46.65;24.77;;;6.50;99.90;;;;;;5095081;28;20020;-67
2021/04/10 05:03:07;;;;;;;45.78;24.27;;;6.50;99.90;;;;;;5094368;28;20039;-67
2021/04/10 05:05:33;;;;;;;48.65;24.60;;;6.50;99.90;;;;;;5095008;28;20024;-67
2021/04/10 05:07:58;;;;;;;39.90;23.75;;;6.50;99.90;;;;;;5094703;28;20054;-66
2021/04/10 05:10:24;;;;;;;49.83;23.52;;;6.50;99.90;;;;;;5094958;28;20361;-67
2021/04/10 05:12:52;;;;;;;47.85;23.70;;;6.60;99.90;;;;;;5094874;28;20038;-67
2021/04/10 05:15:17;;;;;;;38.38;23.95;;;6.50;99.90;;;;;;5094592;28;20464;-67
2021/04/10 05:17:43;;;;;;;46.63;23.48;;;6.50;99.90;;;;;;5094725;28;20055;-67
2021/04/10 05:20:09;;;;;;;45.45;22.75;;;6.50;99.90;;;;;;5093568;28;20381;-67
2021/04/10 05:22:34;;;;;;;44.83;23.90;;;6.50;99.90;;;;;;5094714;28;20024;-67
2021/04/10 05:25:01;;;;;;;44.65;23.75;;;6.60;99.90;;;;;;5094431;28;20024;-67
2021/04/10 05:27:26;;;;;;;45.53;22.42;;;6.60;99.90;;;;;;5094671;28;20027;-67
2021/04/10 05:29:52;;;;;;;44.95;23.33;;;6.50;99.90;;;;;;5094573;28;20047;-67
2021/04/10 05:32:18;;;;;;;38.83;22.02;;;6.50;99.90;;;;;;5094565;28;20036;-67
2021/04/10 05:34:43;;;;;;;39.83;21.92;;;6.50;99.90;;;;;;5094256;28;20407;-67
2021/04/10 05:37:09;;;;;;;45.22;21.15;;;6.50;99.90;;;;;;5094422;28;20060;-67
2021/04/10 05:39:35;;;;;;;41.15;18.75;;;6.70;99.90;;;;;;5094478;28;20012;-67
2021/04/10 05:42:00;;;;;;;30.85;17.25;;;6.70;99.90;;;;;;5094407;28;20060;-67
2021/04/10 05:44:26;;;;;;;34.85;17.75;;;6.70;99.90;;;;;;5093408;28;20020;-67
2021/04/10 05:46:51;;;;;;;32.60;17.70;;;6.60;99.90;;;;;;5094066;28;20028;-67
2021/04/10 05:49:17;;;;;;;38.70;17.67;;;6.60;99.90;;;;;;5094024;28;20465;-67
2021/04/10 05:51:42;;;;;;;29.98;16.55;;;6.50;99.90;;;;;;5094277;28;20020;-67
2021/04/10 05:54:08;;;;;;;32.25;16.15;;;6.60;99.90;;;;;;5094279;28;20036;-66
2021/04/10 05:56:36;;;;;;;30.27;15.82;;;6.50;99.90;;;;;;5093848;28;20032;-67
2021/04/10 05:59:01;;;;;;;30.58;15.35;;;6.50;99.90;;;;;;5094195;28;20426;-67
2021/04/10 06:01:27;;;;;;;31.70;14.50;;;6.40;99.90;;;;;;5093642;28;20082;-67
2021/04/10 06:03:56;;;;;;;29.65;14.75;;;6.50;99.90;;;;;;5094156;28;20085;-67
2021/04/10 06:06:21;;;;;;;30.85;15.27;;;6.50;99.90;;;;;;5094159;28;20024;-67
2021/04/10 06:08:47;;;;;;;26.15;14.02;;;6.40;99.90;;;;;;5093863;28;20028;-67
2021/04/10 06:11:12;;;;;;;28.92;13.55;;;6.40;99.90;;;;;;5094073;28;20077;-67
2021/04/10 06:13:38;;;;;;;27.42;14.57;;;6.30;99.90;;;;;;5095638;28;20024;-66
2021/04/10 06:16:06;;;;;;;29.92;14.65;;;6.30;99.90;;;;;;5098023;28;20028;-67
2021/04/10 06:18:31;;;;;;;30.60;13.98;;;6.30;99.90;;;;;;5098140;28;20081;-67
2021/04/10 06:20:57;;;;;;;22.15;13.15;;;6.30;99.90;;;;;;5098175;28;20036;-67
2021/04/10 06:23:23;;;;;;;29.33;13.43;;;6.30;99.90;;;;;;5096236;28;20016;-66
2021/04/10 06:25:48;;;;;;;26.92;13.43;;;6.30;99.90;;;;;;5097784;28;20069;-67
2021/04/10 06:28:14;;;;;;;25.17;13.68;;;6.30;99.90;;;;;;5098072;28;20074;-67
2021/04/10 06:30:40;;;;;;;34.47;13.75;;;6.30;99.90;;;;;;5080128;28;20445;-67
2021/04/10 06:33:05;;;;;;;36.40;14.38;;;6.30;99.90;;;;;;5097675;28;20039;-67
2021/04/10 06:35:31;;;;;;;27.65;13.80;;;6.30;99.90;;;;;;5097906;28;20025;-67
2021/04/10 06:37:56;;;;;;;29.08;13.75;;;6.30;99.90;;;;;;5097253;28;20031;-67
2021/04/10 06:40:22;;;;;;;32.67;14.32;;;6.20;99.90;;;;;;5097751;28;20445;-67
2021/04/10 06:42:47;;;;;;;31.60;13.57;;;6.40;99.90;;;;;;5097723;28;20334;-67
2021/04/10 06:45:13;;;;;;;30.30;14.45;;;6.40;99.90;;;;;;5096469;28;20020;-67
2021/04/10 06:47:39;;;;;;;29.08;13.98;;;6.40;99.90;;;;;;5095877;28;20028;-67
2021/04/10 06:50:06;;;;;;;29.30;13.38;;;6.50;99.90;;;;;;5097382;28;20024;-67
2021/04/10 06:52:38;;;;;;;36.05;15.38;;;6.40;99.90;;;;;;5097315;28;20020;-67
2021/04/10 06:55:08;;;;;;;35.00;14.57;;;6.40;99.90;;;;;;5096117;28;20526;-67
2021/04/10 06:58:11;;;;;;;34.80;15.43;;;6.40;99.90;;;;;;5096842;28;20036;-67
2021/04/10 07:00:36;;;;;;;36.30;15.70;;;6.50;99.90;;;;;;5097446;28;20020;-67
2021/04/10 07:03:03;;;;;;;36.38;16.20;;;6.50;99.90;;;;;;5097350;28;20426;-67
2021/04/10 07:05:30;;;;;;;39.20;17.65;;;6.40;99.90;;;;;;5095906;28;20077;-67
2021/04/10 07:07:56;;;;;;;35.67;17.90;;;6.40;99.90;;;;;;5097323;28;20357;-67
2021/04/10 07:10:22;;;;;;;43.63;19.38;;;6.40;99.90;;;;;;5097350;28;20024;-67
2021/04/10 07:12:48;;;;;;;40.80;18.83;;;6.40;99.90;;;;;;5097236;28;20515;-67
2021/04/10 07:15:16;;;;;;;43.65;20.23;;;6.50;99.90;;;;;;5097072;28;20028;-67
2021/04/10 07:17:41;;;;;;;41.90;19.45;;;6.50;99.90;;;;;;5096968;28;20016;-67
2021/04/10 07:20:29;;;;;;;50.28;20.58;;;6.60;99.90;;;;;;5097070;28;20074;-67
2021/04/10 07:23:01;;;;;;;47.20;20.33;;;6.50;99.90;;;;;;5096445;28;20457;-67
2021/04/10 07:25:28;;;;;;;43.65;21.60;;;6.60;99.90;;;;;;5095238;28;20052;-67
2021/04/10 07:27:54;;;;;;;45.92;21.85;;;6.50;99.90;;;;;;5096653;28;20129;-67
2021/04/10 07:30:21;;;;;;;41.63;20.42;;;6.60;99.90;;;;;;5096858;28;20119;-67
2021/04/10 07:32:46;;;;;;;49.03;21.77;;;6.60;99.90;;;;;;5096533;28;20047;-67
2021/04/10 07:35:15;;;;;;;45.75;22.80;;;6.60;99.90;;;;;;5096485;28;20048;-67
2021/04/10 07:37:43;;;;;;;46.92;22.42;;;6.70;99.90;;;;;;5096666;28;20052;-67
2021/04/10 07:40:12;;;;;;;45.83;21.75;;;6.70;99.90;;;;;;5096432;28;20016;-67
2021/04/10 07:42:40;;;;;;;42.67;20.25;;;6.70;99.90;;;;;;5096346;28;20465;-67
2021/04/10 07:48:04;;;;;;;43.60;21.35;;;6.70;99.90;;;;;;5112255;27;20355;-67
2021/04/10 07:50:33;;;;;;;48.75;22.52;;;6.70;99.90;;;;;;5110521;28;20070;-67
2021/04/10 07:53:25;;;;;;;48.38;23.45;;;6.70;99.90;;;;;;5111400;28;20099;-67
2021/04/10 07:55:52;;;;;;;49.60;23.40;;;6.70;99.90;;;;;;5111300;28;20546;-68
2021/04/10 08:00:58;;;;;;;47.10;23.23;;;6.80;99.90;;;;;;5112216;27;20584;-68
2021/04/10 08:08:50;;;;;;;44.47;21.48;;;6.80;99.90;;;;;;5112224;27;20401;-67
2021/04/10 08:11:16;;;;;;;41.83;22.35;;;6.80;99.90;;;;;;5111989;28;20031;-67
2021/04/10 08:14:01;;;;;;;41.95;22.23;;;6.80;99.90;;;;;;5111640;28;20091;-67
2021/04/10 08:16:26;;;;;;;42.60;21.85;;;6.90;99.90;;;;;;5111831;28;20512;-67
2021/04/10 08:18:55;;;;;;;43.20;22.05;;;6.90;99.90;;;;;;5111767;28;20048;-67
2021/04/10 08:21:42;;;;;;;42.60;22.00;;;7.10;99.90;;;;;;5111169;28;20034;-67
2021/04/10 08:24:29;;;;;;;46.88;22.75;;;7.30;99.90;;;;;;5111068;28;20035;-67
2021/04/10 08:27:13;;;;;;;43.50;22.17;;;7.50;99.90;;;;;;5109773;28;20024;-67
2021/04/10 08:29:40;;;;;;;44.80;22.42;;;7.70;99.90;;;;;;5111593;28;20023;-67
2021/04/10 08:32:07;;;;;;;42.58;21.73;;;7.90;99.90;;;;;;5111232;28;20055;-67
2021/04/10 08:34:33;;;;;;;42.67;22.48;;;8.30;99.90;;;;;;5110919;28;20023;-67
2021/04/10 08:37:01;;;;;;;40.70;22.20;;;8.40;99.90;;;;;;5111490;28;20024;-67
2021/04/10 08:39:32;;;;;;;38.03;21.27;;;8.40;99.90;;;;;;5111155;28;20020;-67
2021/04/10 08:42:00;;;;;;;41.30;21.38;;;8.50;99.90;;;;;;5111349;28;20047;-68
2021/04/10 08:44:29;;;;;;;39.92;21.40;;;8.40;99.90;;;;;;5109521;28;20028;-67
2021/04/10 08:46:55;;;;;;;39.17;21.15;;;8.40;99.90;;;;;;5109983;28;20035;-67
2021/04/10 08:49:21;;;;;;;38.88;22.30;;;8.40;99.90;;;;;;5109378;28;20062;-67
2021/04/10 08:51:51;;;;;;;38.30;21.42;;;8.50;99.90;;;;;;5109743;28;20055;-67
2021/04/10 08:54:18;;;;;;;40.60;20.83;;;8.40;99.90;;;;;;5111098;28;20020;-67
2021/04/10 08:56:49;;;;;;;39.40;21.90;;;8.40;99.90;;;;;;5110763;28;20076;-67
2021/04/10 08:59:18;;;;;;;48.38;22.30;;;8.40;99.90;;;;;;5111032;28;20046;-67
2021/04/10 09:02:04;;;;;;;39.50;22.13;;;8.40;99.90;;;;;;5111055;28;20028;-68
2021/04/10 09:04:58;;;;;;;38.75;22.45;;;8.20;99.90;;;;;;5109968;28;20031;-67
2021/04/10 09:15:45;;;;;;;42.65;26.25;;;8.40;99.90;;;;;;5110911;27;20389;-68
2021/04/10 09:18:13;;;;;;;44.75;23.52;;;8.40;99.90;;;;;;5111639;28;20043;-68
2021/04/10 09:26:17;;;;;;;39.50;20.00;;;8.40;99.90;;;;;;5112228;27;20288;-67
2021/04/10 09:29:08;;;;;;;38.60;21.38;;;8.30;99.90;;;;;;5111608;28;20028;-67
2021/04/10 09:31:45;;;;;;;47.15;21.02;;;8.40;99.90;;;;;;5111253;28;20024;-67
2021/04/10 09:34:51;;;;;;;44.83;20.90;;;8.60;99.90;;;;;;5109982;28;20028;-67
2021/04/10 09:40:02;;;;;;;39.80;19.73;;;8.50;99.90;;;;;;5112281;27;20347;-67
2021/04/10 09:45:17;;;;;;;42.25;19.05;;;8.70;99.90;;;;;;5112244;27;20351;-67
2021/04/10 09:50:37;;;;;;;35.97;19.08;;;8.90;99.90;;;;;;5112212;27;20400;-68
2021/04/10 09:53:06;;;;;;;39.88;19.77;;;9.00;99.90;;;;;;5110508;28;20020;-67
2021/04/10 09:55:35;;;;;;;41.78;19.83;;;9.20;99.90;;;;;;5111378;28;20103;-68
2021/04/10 09:58:13;;;;;;;35.72;18.52;;;9.30;99.90;;;;;;5110111;28;20024;-68
2021/04/10 10:00:44;;;;;;;34.47;18.25;;;9.40;99.90;;;;;;5111793;28;20043;-68
2021/04/10 10:03:12;;;;;;;34.95;18.55;;;9.20;99.90;;;;;;5111743;28;20020;-68
2021/04/10 10:05:42;;;;;;;41.88;19.17;;;9.10;99.90;;;;;;5111674;28;20069;-68
2021/04/10 10:08:10;;;;;;;39.03;18.33;;;9.10;99.90;;;;;;5111260;28;20069;-68
2021/04/10 10:10:40;;;;;;;40.75;19.50;;;9.00;99.90;;;;;;5111592;28;20468;-68
2021/04/10 10:13:11;;;;;;;45.15;18.58;;;8.90;99.90;;;;;;5110953;28;20024;-68
2021/04/10 10:15:38;;;;;;;38.90;18.67;;;8.80;99.90;;;;;;5111518;28;20092;-68
2021/04/10 10:18:25;;;;;;;38.03;17.90;;;8.70;99.90;;;;;;5111199;28;20072;-67
2021/04/10 10:20:55;;;;;;;40.45;18.77;;;8.60;99.90;;;;;;5110828;28;20035;-68
2021/04/10 10:23:21;;;;;;;35.15;17.95;;;8.60;99.90;;;;;;5111062;28;20051;-67
2021/04/10 10:25:47;;;;;;;41.92;19.20;;;8.70;99.90;;;;;;5110995;28;20023;-68
2021/04/10 10:28:15;;;;;;;34.30;18.50;;;8.70;99.90;;;;;;5109994;28;20028;-68
2021/04/10 10:30:41;;;;;;;33.72;18.70;;;8.90;99.90;;;;;;5110929;28;20350;-68
2021/04/10 10:33:07;;;;;;;38.38;18.98;;;8.90;99.90;;;;;;5111179;28;20016;-68
2021/04/10 10:35:33;;;;;;;36.85;19.80;;;8.90;99.90;;;;;;5111086;28;20502;-71
2021/04/10 10:38:04;;;;;;;40.58;18.90;;;9.10;99.90;;;;;;5110484;28;20024;-68
2021/04/10 10:40:30;;;;;;;39.70;17.98;;;9.40;99.90;;;;;;5110754;28;20069;-68
2021/04/10 10:43:10;;;;;;;48.85;18.60;;;9.30;99.90;;;;;;5111011;28;20412;-68
2021/04/10 10:45:42;;;;;;;38.33;19.15;;;9.50;99.90;;;;;;5110968;28;20124;-68
2021/04/10 10:48:34;;;;;;;38.45;18.63;;;9.70;99.90;;;;;;5110598;28;20031;-69
2021/04/10 10:51:03;;;;;;;31.85;17.85;;;10.00;99.90;;;;;;5109284;28;20533;-68
2021/04/10 10:53:35;;;;;;;36.65;18.70;;;10.10;99.90;;;;;;5110813;28;20020;-68
2021/04/10 10:56:25;;;;;;;39.00;19.05;;;10.40;99.90;;;;;;5110794;28;20053;-68
2021/04/10 10:58:55;;;;;;;40.15;19.70;;;10.40;99.90;;;;;;5108845;28;20107;-68
2021/04/10 11:01:35;;;;;;;42.47;20.45;;;10.30;99.90;;;;;;5099194;28;20020;-68
2021/04/10 11:04:09;;;;;;;41.72;21.70;;;10.70;99.90;;;;;;5096871;28;20027;-68
2021/04/10 11:06:52;;;;;;;37.90;20.65;;;10.70;99.90;;;;;;5096589;28;20085;-68
2021/04/10 11:09:23;;;;;;;37.60;19.83;;;10.50;99.90;;;;;;5096311;28;20031;-68
2021/04/10 11:11:52;;;;;;;42.47;21.27;;;10.60;99.90;;;;;;5096611;28;20020;-68
2021/04/10 11:14:20;;;;;;;41.80;21.10;;;10.60;99.90;;;;;;5096811;28;20078;-68
2021/04/10 11:16:48;;;;;;;42.63;21.63;;;10.40;99.90;;;;;;5096523;28;20107;-68
2021/04/10 11:19:35;;;;;;;45.75;22.38;;;10.50;99.90;;;;;;5096508;28;20035;-68
2021/04/10 11:22:03;;;;;;;38.55;20.48;;;10.40;99.90;;;;;;5096693;28;20024;-68
2021/04/10 11:24:38;;;;;;;40.30;21.30;;;10.60;99.90;;;;;;5096374;28;20056;-68
2021/04/10 11:27:21;;;;;;;34.20;20.73;;;10.40;99.90;;;;;;5095479;28;20024;-68
2021/04/10 11:32:36;;;;;;;36.78;21.08;;;10.50;99.90;;;;;;5133238;27;651553;-68
2021/04/10 11:35:05;;;;;;;44.85;22.67;;;10.60;99.90;;;;;;5132443;27;20027;-68
2021/04/10 11:40:10;;;;;;;40.33;26.27;;;10.60;99.90;;;;;;5090645;28;20387;-68
2021/04/10 11:42:38;;;;;;;43.58;24.20;;;10.60;99.90;;;;;;5091580;28;20031;-68
2021/04/10 11:45:10;;;;;;;46.13;23.60;;;10.40;99.90;;;;;;5090124;28;20363;-68
2021/04/10 11:47:39;;;;;;;41.95;23.65;;;10.30;99.90;;;;;;5091229;28;20016;-68
2021/04/10 11:50:08;;;;;;;44.88;23.98;;;10.20;99.90;;;;;;5091418;28;20020;-68
2021/04/10 11:52:34;;;;;;;43.72;24.17;;;10.30;99.90;;;;;;5089951;28;20028;-68
2021/04/10 11:55:17;;;;;;;48.80;24.92;;;10.30;99.90;;;;;;5091342;28;20047;-68
2021/04/10 11:57:44;;;;;;;40.88;25.05;;;10.30;99.90;;;;;;5091240;28;20461;-68
2021/04/10 12:00:13;;;;;;;47.75;23.70;;;10.20;99.90;;;;;;5091508;28;20032;-68
2021/04/10 12:02:41;;;;;;;37.83;24.15;;;10.10;99.90;;;;;;5090658;28;20023;-68
2021/04/10 12:05:28;;;;;;;42.67;24.90;;;10.20;99.90;;;;;;5089732;28;20481;-68
2021/04/10 12:08:24;;;;;;;44.97;25.42;;;10.40;99.90;;;;;;5091025;28;20023;-68
2021/04/10 12:10:54;;;;;;;45.95;25.00;;;10.50;99.90;;;;;;5089573;28;20448;-68
2021/04/10 12:13:21;;;;;;;45.20;24.98;;;10.50;99.90;;;;;;5090989;28;20365;-68
2021/04/10 12:15:51;;;;;;;43.53;24.52;;;10.60;99.90;;;;;;5090902;28;20040;-68
2021/04/10 12:18:17;;;;;;;45.80;25.20;;;10.20;99.90;;;;;;5089378;28;20028;-68
2021/04/10 12:20:43;;;;;;;42.00;25.25;;;10.40;99.90;;;;;;5090517;28;20099;-68
2021/04/10 12:23:09;;;;;;;40.58;23.67;;;10.40;99.90;;;;;;5089737;28;20021;-68
2021/04/10 12:25:35;;;;;;;43.58;24.92;;;10.20;99.90;;;;;;5072910;28;20019;-68
2021/04/10 12:28:02;;;;;;;45.35;24.77;;;10.20;99.90;;;;;;5090436;28;20020;-68
2021/04/10 12:30:28;;;;;;;45.40;25.65;;;10.10;99.90;;;;;;5089536;28;20027;-68
2021/04/10 12:32:53;;;;;;;43.10;26.45;;;10.30;99.90;;;;;;5090592;28;20029;-68
2021/04/10 12:35:19;;;;;;;45.35;25.40;;;10.60;99.90;;;;;;5089441;28;20074;-68
2021/04/10 12:37:44;;;;;;;43.88;25.63;;;10.80;99.90;;;;;;5090028;28;20082;-68
2021/04/10 12:40:10;;;;;;;43.13;26.95;;;11.00;99.90;;;;;;5090495;28;20381;-68
2021/04/10 12:42:37;;;;;;;44.80;26.55;;;10.80;99.90;;;;;;5090424;28;20052;-68
2021/04/10 12:45:04;;;;;;;47.47;25.95;;;10.80;99.90;;;;;;5089182;28;20020;-68
2021/04/10 12:47:29;;;;;;;50.13;27.35;;;10.60;99.90;;;;;;5090387;28;20052;-68
2021/04/10 12:49:55;;;;;;;47.03;26.33;;;10.80;99.90;;;;;;5083915;28;20067;-68
2021/04/10 12:52:21;;;;;;;45.97;26.00;;;11.00;99.90;;;;;;5075314;28;20032;-68
2021/04/10 12:54:48;;;;;;;45.97;27.40;;;10.70;99.90;;;;;;5076459;28;20016;-68
2021/04/10 12:57:14;;;;;;;47.78;28.25;;;10.70;99.90;;;;;;5075203;28;20492;-68
2021/04/10 12:59:39;;;;;;;44.92;27.58;;;10.70;99.90;;;;;;5075968;28;20032;-68
2021/04/10 13:02:05;;;;;;;46.35;26.80;;;10.60;99.90;;;;;;5076597;28;20024;-68
2021/04/10 13:04:32;;;;;;;49.95;27.40;;;10.10;99.90;;;;;;5075939;28;20028;-68
2021/04/10 13:06:59;;;;;;;58.50;29.35;;;10.10;99.90;;;;;;5076504;28;20024;-68
2021/04/10 13:09:25;;;;;;;48.97;30.10;;;10.20;99.90;;;;;;5076434;28;20090;-68
2021/04/10 13:11:51;;;;;;;51.83;29.02;;;10.00;99.90;;;;;;5075849;28;20029;-68
2021/04/10 13:14:17;;;;;;;54.92;29.23;;;9.90;99.90;;;;;;5076404;28;20020;-68
2021/04/10 13:16:43;;;;;;;58.65;30.98;;;9.90;99.90;;;;;;5057850;28;20029;-68
2021/04/10 13:19:09;;;;;;;50.42;30.27;;;9.90;99.90;;;;;;5076216;28;20138;-68
2021/04/10 13:21:34;;;;;;;52.50;30.42;;;9.70;99.90;;;;;;5075971;28;20024;-68
2021/04/10 13:24:00;;;;;;;55.67;32.20;;;9.70;99.90;;;;;;5074343;28;20024;-68